sensor_id;sensor_type;location;lat;lon;timestamp;P1;durP1;ratioP1;P2;durP2;ratioP2
2558;SDS011;1289;53.488;10.006;2023-02-28T00:01:40;6.10;;;5.60;;
2558;SDS011;1289;53.488;10.006;2023-02-28T00:04:07;7.40;;;5.23;;
2558;SDS011;1289;53.488;10.006;2023-02-28T00:06:34;5.63;;;5.13;;
2558;SDS011;1289;53.488;10.006;2023-02-28T00:09:00;5.13;;;4.63;;
2558;SDS011;1289;53.488;10.006;2023-02-28T00:11:28;5.43;;;4.93;;
2558;SDS011;1289;53.488;10.006;2023-02-28T00:13:55;6.00;;;5.07;;
2558;SDS011;1289;53.488;10.006;2023-02-28T00:16:22;6.70;;;4.77;;
2558;SDS011;1289;53.488;10.006;2023-02-28T00:18:48;6.03;;;5.10;;
2558;SDS011;1289;53.488;10.006;2023-02-28T00:21:16;4.90;;;4.50;;
2558;SDS011;1289;53.488;10.006;2023-02-28T00:23:43;4.97;;;4.57;;
2558;SDS011;1289;53.488;10.006;2023-02-28T00:26:09;6.20;;;5.60;;
2558;SDS011;1289;53.488;10.006;2023-02-28T00:28:39;5.27;;;4.77;;
2558;SDS011;1289;53.488;10.006;2023-02-28T00:31:05;6.13;;;5.20;;
2558;SDS011;1289;53.488;10.006;2023-02-28T00:33:34;4.83;;;4.37;;
2558;SDS011;1289;53.488;10.006;2023-02-28T00:36:01;4.60;;;4.20;;
2558;SDS011;1289;53.488;10.006;2023-02-28T00:38:29;5.07;;;4.37;;
2558;SDS011;1289;53.488;10.006;2023-02-28T00:40:56;5.97;;;4.67;;
2558;SDS011;1289;53.488;10.006;2023-02-28T00:43:24;5.23;;;4.77;;
2558;SDS011;1289;53.488;10.006;2023-02-28T00:45:52;6.00;;;4.97;;
2558;SDS011;1289;53.488;10.006;2023-02-28T00:48:19;5.37;;;4.40;;
2558;SDS011;1289;53.488;10.006;2023-02-28T00:50:47;5.10;;;4.70;;
2558;SDS011;1289;53.488;10.006;2023-02-28T00:53:14;5.37;;;4.70;;
2558;SDS011;1289;53.488;10.006;2023-02-28T00:55:41;5.03;;;4.23;;
2558;SDS011;1289;53.488;10.006;2023-02-28T00:58:07;5.83;;;4.97;;
2558;SDS011;1289;53.488;10.006;2023-02-28T01:00:34;6.27;;;4.50;;
2558;SDS011;1289;53.488;10.006;2023-02-28T01:03:02;4.90;;;4.50;;
2558;SDS011;1289;53.488;10.006;2023-02-28T01:05:28;5.73;;;4.80;;
2558;SDS011;1289;53.488;10.006;2023-02-28T01:07:55;4.83;;;4.43;;
2558;SDS011;1289;53.488;10.006;2023-02-28T01:10:22;6.10;;;3.80;;
2558;SDS011;1289;53.488;10.006;2023-02-28T01:12:48;4.60;;;4.20;;
2558;SDS011;1289;53.488;10.006;2023-02-28T01:15:15;5.63;;;5.13;;
2558;SDS011;1289;53.488;10.006;2023-02-28T01:17:43;4.80;;;4.40;;
2558;SDS011;1289;53.488;10.006;2023-02-28T01:20:12;5.40;;;4.43;;
2558;SDS011;1289;53.488;10.006;2023-02-28T01:22:39;6.43;;;5.20;;
2558;SDS011;1289;53.488;10.006;2023-02-28T01:25:07;5.17;;;4.13;;
2558;SDS011;1289;53.488;10.006;2023-02-28T01:27:34;6.83;;;4.63;;
2558;SDS011;1289;53.488;10.006;2023-02-28T01:30:01;5.53;;;5.10;;
2558;SDS011;1289;53.488;10.006;2023-02-28T01:32:28;4.93;;;4.53;;
2558;SDS011;1289;53.488;10.006;2023-02-28T01:34:54;7.00;;;6.37;;
2558;SDS011;1289;53.488;10.006;2023-02-28T01:37:23;5.53;;;5.00;;
2558;SDS011;1289;53.488;10.006;2023-02-28T01:39:50;6.13;;;5.03;;
2558;SDS011;1289;53.488;10.006;2023-02-28T01:42:19;5.77;;;5.37;;
2558;SDS011;1289;53.488;10.006;2023-02-28T01:44:57;5.13;;;4.63;;
2558;SDS011;1289;53.488;10.006;2023-02-28T01:47:27;5.53;;;5.10;;
2558;SDS011;1289;53.488;10.006;2023-02-28T01:49:56;6.40;;;5.37;;
2558;SDS011;1289;53.488;10.006;2023-02-28T01:52:24;6.53;;;5.23;;
2558;SDS011;1289;53.488;10.006;2023-02-28T01:54:53;6.20;;;5.60;;
2558;SDS011;1289;53.488;10.006;2023-02-28T01:57:22;6.57;;;5.83;;
2558;SDS011;1289;53.488;10.006;2023-02-28T01:59:52;9.47;;;5.60;;
2558;SDS011;1289;53.488;10.006;2023-02-28T02:02:21;7.43;;;5.83;;
2558;SDS011;1289;53.488;10.006;2023-02-28T02:04:50;5.80;;;5.30;;
2558;SDS011;1289;53.488;10.006;2023-02-28T02:07:19;6.10;;;5.40;;
2558;SDS011;1289;53.488;10.006;2023-02-28T02:09:47;5.53;;;5.10;;
2558;SDS011;1289;53.488;10.006;2023-02-28T02:12:15;6.90;;;5.50;;
2558;SDS011;1289;53.488;10.006;2023-02-28T02:14:52;6.77;;;6.27;;
2558;SDS011;1289;53.488;10.006;2023-02-28T02:17:28;6.00;;;5.50;;
2558;SDS011;1289;53.488;10.006;2023-02-28T02:23:12;6.20;;;5.60;;
2558;SDS011;1289;53.488;10.006;2023-02-28T02:25:54;6.53;;;5.87;;
2558;SDS011;1289;53.488;10.006;2023-02-28T02:31:29;6.10;;;5.60;;
2558;SDS011;1289;53.488;10.006;2023-02-28T02:34:27;8.10;;;7.30;;
2558;SDS011;1289;53.488;10.006;2023-02-28T02:37:03;8.67;;;6.93;;
2558;SDS011;1289;53.488;10.006;2023-02-28T02:39:38;7.83;;;7.07;;
2558;SDS011;1289;53.488;10.006;2023-02-28T02:42:11;8.20;;;6.97;;
2558;SDS011;1289;53.488;10.006;2023-02-28T02:44:42;8.50;;;7.40;;
2558;SDS011;1289;53.488;10.006;2023-02-28T02:47:12;7.67;;;6.87;;
2558;SDS011;1289;53.488;10.006;2023-02-28T02:49:45;8.60;;;6.90;;
2558;SDS011;1289;53.488;10.006;2023-02-28T02:52:16;6.97;;;6.43;;
2558;SDS011;1289;53.488;10.006;2023-02-28T02:54:44;8.83;;;7.00;;
2558;SDS011;1289;53.488;10.006;2023-02-28T02:57:13;9.10;;;6.90;;
2558;SDS011;1289;53.488;10.006;2023-02-28T02:59:43;7.87;;;7.10;;
2558;SDS011;1289;53.488;10.006;2023-02-28T03:02:10;13.83;;;7.70;;
2558;SDS011;1289;53.488;10.006;2023-02-28T03:04:40;10.70;;;8.37;;
2558;SDS011;1289;53.488;10.006;2023-02-28T03:07:11;8.23;;;6.70;;
2558;SDS011;1289;53.488;10.006;2023-02-28T03:09:38;7.60;;;7.00;;
2558;SDS011;1289;53.488;10.006;2023-02-28T03:12:06;11.10;;;8.13;;
2558;SDS011;1289;53.488;10.006;2023-02-28T03:14:46;9.93;;;8.93;;
2558;SDS011;1289;53.488;10.006;2023-02-28T03:17:27;9.63;;;8.60;;
2558;SDS011;1289;53.488;10.006;2023-02-28T03:20:03;8.40;;;7.40;;
2558;SDS011;1289;53.488;10.006;2023-02-28T03:22:37;8.07;;;7.30;;
2558;SDS011;1289;53.488;10.006;2023-02-28T03:25:12;7.50;;;6.80;;
2558;SDS011;1289;53.488;10.006;2023-02-28T03:27:41;8.50;;;7.70;;
2558;SDS011;1289;53.488;10.006;2023-02-28T03:30:15;8.53;;;7.60;;
2558;SDS011;1289;53.488;10.006;2023-02-28T03:32:50;12.33;;;7.77;;
2558;SDS011;1289;53.488;10.006;2023-02-28T03:35:21;8.40;;;7.60;;
2558;SDS011;1289;53.488;10.006;2023-02-28T03:37:50;7.70;;;6.93;;
2558;SDS011;1289;53.488;10.006;2023-02-28T03:40:20;8.30;;;7.50;;
2558;SDS011;1289;53.488;10.006;2023-02-28T03:42:49;8.77;;;7.70;;
2558;SDS011;1289;53.488;10.006;2023-02-28T03:45:18;14.70;;;9.00;;
2558;SDS011;1289;53.488;10.006;2023-02-28T03:47:49;8.63;;;7.80;;
2558;SDS011;1289;53.488;10.006;2023-02-28T03:50:18;9.27;;;8.47;;
2558;SDS011;1289;53.488;10.006;2023-02-28T03:52:49;12.47;;;7.90;;
2558;SDS011;1289;53.488;10.006;2023-02-28T03:55:17;8.97;;;8.10;;
2558;SDS011;1289;53.488;10.006;2023-02-28T03:57:47;8.00;;;7.30;;
2558;SDS011;1289;53.488;10.006;2023-02-28T04:00:24;8.80;;;7.73;;
2558;SDS011;1289;53.488;10.006;2023-02-28T04:02:54;8.63;;;7.83;;
2558;SDS011;1289;53.488;10.006;2023-02-28T04:05:23;15.33;;;8.20;;
2558;SDS011;1289;53.488;10.006;2023-02-28T04:07:50;9.20;;;8.10;;
2558;SDS011;1289;53.488;10.006;2023-02-28T04:10:16;8.90;;;8.10;;
2558;SDS011;1289;53.488;10.006;2023-02-28T04:12:43;9.90;;;7.20;;
2558;SDS011;1289;53.488;10.006;2023-02-28T04:15:10;7.97;;;7.23;;
2558;SDS011;1289;53.488;10.006;2023-02-28T04:17:36;9.17;;;7.73;;
2558;SDS011;1289;53.488;10.006;2023-02-28T04:20:03;8.97;;;7.33;;
2558;SDS011;1289;53.488;10.006;2023-02-28T04:22:36;8.90;;;8.10;;
2558;SDS011;1289;53.488;10.006;2023-02-28T04:25:03;9.50;;;8.50;;
2558;SDS011;1289;53.488;10.006;2023-02-28T04:27:31;12.37;;;8.20;;
2558;SDS011;1289;53.488;10.006;2023-02-28T04:29:57;9.33;;;8.53;;
2558;SDS011;1289;53.488;10.006;2023-02-28T04:32:24;8.53;;;7.83;;
2558;SDS011;1289;53.488;10.006;2023-02-28T04:34:51;8.87;;;7.97;;
2558;SDS011;1289;53.488;10.006;2023-02-28T04:37:17;8.63;;;7.63;;
2558;SDS011;1289;53.488;10.006;2023-02-28T04:39:45;9.47;;;8.57;;
2558;SDS011;1289;53.488;10.006;2023-02-28T04:42:12;8.87;;;7.90;;
2558;SDS011;1289;53.488;10.006;2023-02-28T04:44:39;8.93;;;8.13;;
2558;SDS011;1289;53.488;10.006;2023-02-28T04:47:06;9.90;;;8.40;;
2558;SDS011;1289;53.488;10.006;2023-02-28T04:49:33;9.03;;;7.90;;
2558;SDS011;1289;53.488;10.006;2023-02-28T04:51:59;8.43;;;7.63;;
2558;SDS011;1289;53.488;10.006;2023-02-28T04:54:26;9.00;;;8.10;;
2558;SDS011;1289;53.488;10.006;2023-02-28T04:56:54;9.10;;;8.23;;
2558;SDS011;1289;53.488;10.006;2023-02-28T04:59:21;10.47;;;9.47;;
2558;SDS011;1289;53.488;10.006;2023-02-28T05:01:48;9.63;;;8.73;;
2558;SDS011;1289;53.488;10.006;2023-02-28T05:04:15;9.67;;;7.60;;
2558;SDS011;1289;53.488;10.006;2023-02-28T05:06:42;12.20;;;9.20;;
2558;SDS011;1289;53.488;10.006;2023-02-28T05:09:09;10.50;;;9.43;;
2558;SDS011;1289;53.488;10.006;2023-02-28T05:11:37;9.93;;;8.87;;
2558;SDS011;1289;53.488;10.006;2023-02-28T05:14:06;11.50;;;9.20;;
2558;SDS011;1289;53.488;10.006;2023-02-28T05:16:35;8.90;;;8.10;;
2558;SDS011;1289;53.488;10.006;2023-02-28T05:19:02;10.63;;;9.60;;
2558;SDS011;1289;53.488;10.006;2023-02-28T05:21:29;11.27;;;10.17;;
2558;SDS011;1289;53.488;10.006;2023-02-28T05:23:57;9.30;;;8.30;;
2558;SDS011;1289;53.488;10.006;2023-02-28T05:26:26;10.90;;;9.40;;
2558;SDS011;1289;53.488;10.006;2023-02-28T05:28:53;10.77;;;9.77;;
2558;SDS011;1289;53.488;10.006;2023-02-28T05:31:21;10.03;;;8.90;;
2558;SDS011;1289;53.488;10.006;2023-02-28T05:33:48;10.90;;;9.80;;
2558;SDS011;1289;53.488;10.006;2023-02-28T05:36:15;17.20;;;10.40;;
2558;SDS011;1289;53.488;10.006;2023-02-28T05:38:41;11.47;;;9.90;;
2558;SDS011;1289;53.488;10.006;2023-02-28T05:41:09;11.83;;;10.63;;
2558;SDS011;1289;53.488;10.006;2023-02-28T05:43:36;12.37;;;11.07;;
2558;SDS011;1289;53.488;10.006;2023-02-28T05:46:03;19.17;;;10.50;;
2558;SDS011;1289;53.488;10.006;2023-02-28T05:48:33;12.10;;;10.10;;
2558;SDS011;1289;53.488;10.006;2023-02-28T05:51:00;10.37;;;9.37;;
2558;SDS011;1289;53.488;10.006;2023-02-28T05:53:27;12.80;;;10.50;;
2558;SDS011;1289;53.488;10.006;2023-02-28T05:55:54;12.27;;;10.97;;
2558;SDS011;1289;53.488;10.006;2023-02-28T05:58:21;11.97;;;10.87;;
2558;SDS011;1289;53.488;10.006;2023-02-28T06:00:48;24.87;;;10.57;;
2558;SDS011;1289;53.488;10.006;2023-02-28T06:03:15;10.33;;;9.23;;
2558;SDS011;1289;53.488;10.006;2023-02-28T06:05:43;10.30;;;9.30;;
2558;SDS011;1289;53.488;10.006;2023-02-28T06:08:09;11.80;;;9.10;;
2558;SDS011;1289;53.488;10.006;2023-02-28T06:10:36;9.63;;;8.77;;
2558;SDS011;1289;53.488;10.006;2023-02-28T06:13:03;9.40;;;8.50;;
2558;SDS011;1289;53.488;10.006;2023-02-28T06:15:30;12.23;;;8.83;;
2558;SDS011;1289;53.488;10.006;2023-02-28T06:17:57;11.63;;;9.43;;
2558;SDS011;1289;53.488;10.006;2023-02-28T06:20:24;9.90;;;9.00;;
2558;SDS011;1289;53.488;10.006;2023-02-28T06:22:55;10.07;;;9.17;;
2558;SDS011;1289;53.488;10.006;2023-02-28T06:25:23;12.97;;;9.93;;
2558;SDS011;1289;53.488;10.006;2023-02-28T06:27:50;14.23;;;9.70;;
2558;SDS011;1289;53.488;10.006;2023-02-28T06:30:17;9.47;;;8.67;;
2558;SDS011;1289;53.488;10.006;2023-02-28T06:32:48;11.17;;;9.33;;
2558;SDS011;1289;53.488;10.006;2023-02-28T06:35:15;11.50;;;9.90;;
2558;SDS011;1289;53.488;10.006;2023-02-28T06:37:42;11.93;;;9.77;;
2558;SDS011;1289;53.488;10.006;2023-02-28T06:40:11;9.57;;;8.73;;
2558;SDS011;1289;53.488;10.006;2023-02-28T06:42:38;10.30;;;9.17;;
2558;SDS011;1289;53.488;10.006;2023-02-28T06:45:06;10.60;;;9.23;;
2558;SDS011;1289;53.488;10.006;2023-02-28T06:47:34;10.77;;;9.67;;
2558;SDS011;1289;53.488;10.006;2023-02-28T06:50:01;11.17;;;10.00;;
2558;SDS011;1289;53.488;10.006;2023-02-28T06:52:28;9.33;;;8.50;;
2558;SDS011;1289;53.488;10.006;2023-02-28T06:54:55;10.20;;;8.97;;
2558;SDS011;1289;53.488;10.006;2023-02-28T06:57:28;10.53;;;9.50;;
2558;SDS011;1289;53.488;10.006;2023-02-28T06:59:57;14.50;;;10.70;;
2558;SDS011;1289;53.488;10.006;2023-02-28T07:02:24;13.27;;;11.53;;
2558;SDS011;1289;53.488;10.006;2023-02-28T07:04:50;12.70;;;11.00;;
2558;SDS011;1289;53.488;10.006;2023-02-28T07:07:17;11.73;;;10.03;;
2558;SDS011;1289;53.488;10.006;2023-02-28T07:09:43;17.53;;;11.50;;
2558;SDS011;1289;53.488;10.006;2023-02-28T07:12:10;14.23;;;10.77;;
2558;SDS011;1289;53.488;10.006;2023-02-28T07:14:38;11.00;;;8.93;;
2558;SDS011;1289;53.488;10.006;2023-02-28T07:17:06;11.73;;;9.47;;
2558;SDS011;1289;53.488;10.006;2023-02-28T07:19:33;11.73;;;8.23;;
2558;SDS011;1289;53.488;10.006;2023-02-28T07:21:59;11.20;;;8.73;;
2558;SDS011;1289;53.488;10.006;2023-02-28T07:24:27;11.13;;;8.23;;
2558;SDS011;1289;53.488;10.006;2023-02-28T07:26:54;7.40;;;6.70;;
2558;SDS011;1289;53.488;10.006;2023-02-28T07:29:21;7.30;;;6.60;;
2558;SDS011;1289;53.488;10.006;2023-02-28T07:31:49;7.33;;;6.63;;
2558;SDS011;1289;53.488;10.006;2023-02-28T07:34:18;7.33;;;6.73;;
2558;SDS011;1289;53.488;10.006;2023-02-28T07:36:44;7.83;;;7.03;;
2558;SDS011;1289;53.488;10.006;2023-02-28T07:39:11;8.80;;;6.70;;
2558;SDS011;1289;53.488;10.006;2023-02-28T07:41:37;6.40;;;5.80;;
2558;SDS011;1289;53.488;10.006;2023-02-28T07:44:08;6.80;;;6.30;;
2558;SDS011;1289;53.488;10.006;2023-02-28T07:46:35;7.73;;;6.90;;
2558;SDS011;1289;53.488;10.006;2023-02-28T07:49:03;6.87;;;6.20;;
2558;SDS011;1289;53.488;10.006;2023-02-28T07:51:30;6.97;;;6.37;;
2558;SDS011;1289;53.488;10.006;2023-02-28T07:53:57;8.33;;;6.23;;
2558;SDS011;1289;53.488;10.006;2023-02-28T07:56:24;8.60;;;7.80;;
2558;SDS011;1289;53.488;10.006;2023-02-28T07:58:50;6.40;;;5.87;;
2558;SDS011;1289;53.488;10.006;2023-02-28T08:01:17;6.77;;;6.13;;
2558;SDS011;1289;53.488;10.006;2023-02-28T08:03:44;8.30;;;6.80;;
2558;SDS011;1289;53.488;10.006;2023-02-28T08:06:16;7.50;;;6.80;;
2558;SDS011;1289;53.488;10.006;2023-02-28T08:08:44;7.23;;;6.53;;
2558;SDS011;1289;53.488;10.006;2023-02-28T08:11:10;8.57;;;7.77;;
2558;SDS011;1289;53.488;10.006;2023-02-28T08:13:37;6.90;;;6.33;;
2558;SDS011;1289;53.488;10.006;2023-02-28T08:16:04;7.13;;;6.43;;
2558;SDS011;1289;53.488;10.006;2023-02-28T08:18:31;6.50;;;5.90;;
2558;SDS011;1289;53.488;10.006;2023-02-28T08:20:58;7.13;;;6.40;;
2558;SDS011;1289;53.488;10.006;2023-02-28T08:23:27;7.43;;;6.60;;
2558;SDS011;1289;53.488;10.006;2023-02-28T08:25:54;7.00;;;6.40;;
2558;SDS011;1289;53.488;10.006;2023-02-28T08:28:21;7.93;;;6.33;;
2558;SDS011;1289;53.488;10.006;2023-02-28T08:30:48;6.77;;;6.17;;
2558;SDS011;1289;53.488;10.006;2023-02-28T08:33:15;7.23;;;6.53;;
2558;SDS011;1289;53.488;10.006;2023-02-28T08:35:41;8.83;;;7.00;;
2558;SDS011;1289;53.488;10.006;2023-02-28T08:38:08;7.17;;;6.57;;
2558;SDS011;1289;53.488;10.006;2023-02-28T08:40:36;6.80;;;6.20;;
2558;SDS011;1289;53.488;10.006;2023-02-28T08:43:02;8.70;;;6.80;;
2558;SDS011;1289;53.488;10.006;2023-02-28T08:45:29;6.80;;;6.10;;
2558;SDS011;1289;53.488;10.006;2023-02-28T08:47:56;8.10;;;6.40;;
2558;SDS011;1289;53.488;10.006;2023-02-28T08:50:22;6.83;;;6.23;;
2558;SDS011;1289;53.488;10.006;2023-02-28T08:52:49;5.80;;;5.30;;
2558;SDS011;1289;53.488;10.006;2023-02-28T08:55:15;8.97;;;6.23;;
2558;SDS011;1289;53.488;10.006;2023-02-28T08:57:43;8.00;;;6.40;;
2558;SDS011;1289;53.488;10.006;2023-02-28T09:00:10;6.50;;;5.90;;
2558;SDS011;1289;53.488;10.006;2023-02-28T09:02:38;10.63;;;6.30;;
2558;SDS011;1289;53.488;10.006;2023-02-28T09:05:06;5.53;;;5.03;;
2558;SDS011;1289;53.488;10.006;2023-02-28T09:07:33;6.40;;;5.47;;
2558;SDS011;1289;53.488;10.006;2023-02-28T09:09:59;6.67;;;5.97;;
2558;SDS011;1289;53.488;10.006;2023-02-28T09:12:26;6.53;;;5.40;;
2558;SDS011;1289;53.488;10.006;2023-02-28T09:14:55;6.73;;;6.20;;
2558;SDS011;1289;53.488;10.006;2023-02-28T09:17:21;5.60;;;5.10;;
2558;SDS011;1289;53.488;10.006;2023-02-28T09:19:48;5.40;;;4.90;;
2558;SDS011;1289;53.488;10.006;2023-02-28T09:22:15;12.00;;;5.20;;
2558;SDS011;1289;53.488;10.006;2023-02-28T09:24:42;5.73;;;5.23;;
2558;SDS011;1289;53.488;10.006;2023-02-28T09:27:09;6.13;;;5.30;;
2558;SDS011;1289;53.488;10.006;2023-02-28T09:29:36;5.90;;;5.40;;
2558;SDS011;1289;53.488;10.006;2023-02-28T09:32:04;5.40;;;4.90;;
2558;SDS011;1289;53.488;10.006;2023-02-28T09:34:31;6.70;;;6.10;;
2558;SDS011;1289;53.488;10.006;2023-02-28T09:36:58;5.50;;;5.00;;
2558;SDS011;1289;53.488;10.006;2023-02-28T09:39:24;5.43;;;4.90;;
2558;SDS011;1289;53.488;10.006;2023-02-28T09:41:54;9.50;;;4.90;;
2558;SDS011;1289;53.488;10.006;2023-02-28T09:44:23;5.93;;;4.60;;
2558;SDS011;1289;53.488;10.006;2023-02-28T09:46:55;5.83;;;4.80;;
2558;SDS011;1289;53.488;10.006;2023-02-28T09:49:28;6.30;;;4.40;;
2558;SDS011;1289;53.488;10.006;2023-02-28T09:52:00;4.30;;;4.00;;
2558;SDS011;1289;53.488;10.006;2023-02-28T09:54:30;5.37;;;4.30;;
2558;SDS011;1289;53.488;10.006;2023-02-28T09:56:58;5.50;;;4.27;;
2558;SDS011;1289;53.488;10.006;2023-02-28T09:59:33;5.10;;;3.10;;
2558;SDS011;1289;53.488;10.006;2023-02-28T10:02:10;7.80;;;3.83;;
2558;SDS011;1289;53.488;10.006;2023-02-28T10:04:46;4.53;;;3.80;;
2558;SDS011;1289;53.488;10.006;2023-02-28T10:07:20;4.80;;;3.70;;
2558;SDS011;1289;53.488;10.006;2023-02-28T10:09:52;4.17;;;2.90;;
2558;SDS011;1289;53.488;10.006;2023-02-28T10:12:20;2.47;;;2.27;;
2558;SDS011;1289;53.488;10.006;2023-02-28T10:14:47;2.83;;;2.30;;
2558;SDS011;1289;53.488;10.006;2023-02-28T10:17:16;2.97;;;2.70;;
2558;SDS011;1289;53.488;10.006;2023-02-28T10:19:49;2.53;;;2.30;;
2558;SDS011;1289;53.488;10.006;2023-02-28T10:22:23;2.73;;;2.50;;
2558;SDS011;1289;53.488;10.006;2023-02-28T10:24:52;3.00;;;2.80;;
2558;SDS011;1289;53.488;10.006;2023-02-28T10:27:22;3.20;;;3.00;;
2558;SDS011;1289;53.488;10.006;2023-02-28T10:29:50;3.97;;;3.00;;
2558;SDS011;1289;53.488;10.006;2023-02-28T10:32:18;4.50;;;4.10;;
2558;SDS011;1289;53.488;10.006;2023-02-28T10:34:48;3.70;;;3.40;;
2558;SDS011;1289;53.488;10.006;2023-02-28T10:37:17;3.50;;;3.07;;
2558;SDS011;1289;53.488;10.006;2023-02-28T10:39:45;3.63;;;3.33;;
2558;SDS011;1289;53.488;10.006;2023-02-28T10:42:20;4.50;;;4.20;;
2558;SDS011;1289;53.488;10.006;2023-02-28T10:44:57;5.10;;;3.87;;
2558;SDS011;1289;53.488;10.006;2023-02-28T10:47:31;3.73;;;3.43;;
2558;SDS011;1289;53.488;10.006;2023-02-28T10:50:01;4.17;;;3.77;;
2558;SDS011;1289;53.488;10.006;2023-02-28T10:52:35;3.40;;;3.10;;
2558;SDS011;1289;53.488;10.006;2023-02-28T10:55:14;4.17;;;3.37;;
2558;SDS011;1289;53.488;10.006;2023-02-28T10:57:42;3.90;;;3.17;;
2558;SDS011;1289;53.488;10.006;2023-02-28T11:00:13;3.33;;;3.03;;
2558;SDS011;1289;53.488;10.006;2023-02-28T11:02:41;3.03;;;2.83;;
2558;SDS011;1289;53.488;10.006;2023-02-28T11:05:24;3.40;;;3.10;;
2558;SDS011;1289;53.488;10.006;2023-02-28T11:07:53;4.20;;;3.30;;
2558;SDS011;1289;53.488;10.006;2023-02-28T11:10:28;4.03;;;3.63;;
2558;SDS011;1289;53.488;10.006;2023-02-28T11:12:59;3.50;;;3.20;;
2558;SDS011;1289;53.488;10.006;2023-02-28T11:15:27;3.20;;;2.87;;
2558;SDS011;1289;53.488;10.006;2023-02-28T11:17:55;2.70;;;2.50;;
2558;SDS011;1289;53.488;10.006;2023-02-28T11:20:25;3.20;;;2.90;;
2558;SDS011;1289;53.488;10.006;2023-02-28T11:22:53;3.30;;;3.00;;
2558;SDS011;1289;53.488;10.006;2023-02-28T11:25:22;3.00;;;2.70;;
2558;SDS011;1289;53.488;10.006;2023-02-28T11:27:50;3.27;;;2.90;;
2558;SDS011;1289;53.488;10.006;2023-02-28T11:30:25;3.07;;;2.60;;
2558;SDS011;1289;53.488;10.006;2023-02-28T11:32:53;2.90;;;2.70;;
2558;SDS011;1289;53.488;10.006;2023-02-28T11:35:21;3.20;;;3.00;;
2558;SDS011;1289;53.488;10.006;2023-02-28T11:37:52;2.80;;;2.60;;
2558;SDS011;1289;53.488;10.006;2023-02-28T11:40:24;3.57;;;2.90;;
2558;SDS011;1289;53.488;10.006;2023-02-28T11:42:59;2.60;;;2.40;;
2558;SDS011;1289;53.488;10.006;2023-02-28T11:45:41;2.90;;;2.70;;
2558;SDS011;1289;53.488;10.006;2023-02-28T11:48:12;3.20;;;3.00;;
2558;SDS011;1289;53.488;10.006;2023-02-28T11:50:47;2.60;;;2.40;;
2558;SDS011;1289;53.488;10.006;2023-02-28T11:53:22;3.00;;;2.70;;
2558;SDS011;1289;53.488;10.006;2023-02-28T11:56:25;2.67;;;2.47;;
2558;SDS011;1289;53.488;10.006;2023-02-28T11:58:59;3.00;;;2.80;;
2558;SDS011;1289;53.488;10.006;2023-02-28T12:01:39;3.33;;;2.83;;
2558;SDS011;1289;53.488;10.006;2023-02-28T12:04:17;3.20;;;2.73;;
2558;SDS011;1289;53.488;10.006;2023-02-28T12:06:54;3.00;;;2.80;;
2558;SDS011;1289;53.488;10.006;2023-02-28T12:09:30;2.97;;;2.67;;
2558;SDS011;1289;53.488;10.006;2023-02-28T12:12:04;3.30;;;3.00;;
2558;SDS011;1289;53.488;10.006;2023-02-28T12:17:29;3.43;;;2.70;;
2558;SDS011;1289;53.488;10.006;2023-02-28T12:20:03;3.13;;;2.83;;
2558;SDS011;1289;53.488;10.006;2023-02-28T12:22:37;3.83;;;3.27;;
2558;SDS011;1289;53.488;10.006;2023-02-28T12:28:06;3.57;;;3.27;;
2558;SDS011;1289;53.488;10.006;2023-02-28T12:30:35;2.83;;;2.63;;
2558;SDS011;1289;53.488;10.006;2023-02-28T12:33:04;2.50;;;2.30;;
2558;SDS011;1289;53.488;10.006;2023-02-28T12:35:32;3.40;;;3.20;;
2558;SDS011;1289;53.488;10.006;2023-02-28T12:38:04;4.43;;;2.30;;
2558;SDS011;1289;53.488;10.006;2023-02-28T12:40:33;2.70;;;2.50;;
2558;SDS011;1289;53.488;10.006;2023-02-28T12:43:07;2.90;;;2.70;;
2558;SDS011;1289;53.488;10.006;2023-02-28T12:45:38;3.03;;;2.40;;
2558;SDS011;1289;53.488;10.006;2023-02-28T12:48:07;3.53;;;2.77;;
2558;SDS011;1289;53.488;10.006;2023-02-28T12:50:36;2.80;;;2.60;;
2558;SDS011;1289;53.488;10.006;2023-02-28T12:53:06;3.53;;;3.23;;
2558;SDS011;1289;53.488;10.006;2023-02-28T12:55:34;3.23;;;2.93;;
2558;SDS011;1289;53.488;10.006;2023-02-28T12:58:07;3.63;;;2.87;;
2558;SDS011;1289;53.488;10.006;2023-02-28T13:00:38;4.07;;;2.90;;
2558;SDS011;1289;53.488;10.006;2023-02-28T13:03:20;3.70;;;3.40;;
2558;SDS011;1289;53.488;10.006;2023-02-28T13:06:05;3.10;;;2.87;;
2558;SDS011;1289;53.488;10.006;2023-02-28T13:09:02;4.63;;;2.70;;
2558;SDS011;1289;53.488;10.006;2023-02-28T13:11:32;5.03;;;3.03;;
2558;SDS011;1289;53.488;10.006;2023-02-28T13:14:00;3.10;;;2.80;;
2558;SDS011;1289;53.488;10.006;2023-02-28T13:16:42;3.50;;;3.20;;
2558;SDS011;1289;53.488;10.006;2023-02-28T13:19:16;3.77;;;3.47;;
2558;SDS011;1289;53.488;10.006;2023-02-28T13:21:44;4.03;;;3.13;;
2558;SDS011;1289;53.488;10.006;2023-02-28T13:24:12;3.30;;;3.00;;
2558;SDS011;1289;53.488;10.006;2023-02-28T13:33:19;5.00;;;3.60;;
2558;SDS011;1289;53.488;10.006;2023-02-28T13:35:48;3.50;;;3.20;;
2558;SDS011;1289;53.488;10.006;2023-02-28T13:38:16;3.90;;;3.57;;
2558;SDS011;1289;53.488;10.006;2023-02-28T13:40:52;4.97;;;3.73;;
2558;SDS011;1289;53.488;10.006;2023-02-28T13:43:18;4.00;;;3.40;;
2558;SDS011;1289;53.488;10.006;2023-02-28T13:48:39;4.43;;;3.53;;
2558;SDS011;1289;53.488;10.006;2023-02-28T13:54:07;3.77;;;3.43;;
2558;SDS011;1289;53.488;10.006;2023-02-28T13:56:46;3.60;;;3.30;;
2558;SDS011;1289;53.488;10.006;2023-02-28T13:59:19;4.67;;;3.17;;
2558;SDS011;1289;53.488;10.006;2023-02-28T14:01:53;4.20;;;3.90;;
2558;SDS011;1289;53.488;10.006;2023-02-28T14:04:46;4.57;;;3.70;;
2558;SDS011;1289;53.488;10.006;2023-02-28T14:07:17;3.87;;;3.57;;
2558;SDS011;1289;53.488;10.006;2023-02-28T14:09:45;4.13;;;3.80;;
2558;SDS011;1289;53.488;10.006;2023-02-28T14:15:38;4.70;;;3.70;;
2558;SDS011;1289;53.488;10.006;2023-02-28T14:18:13;3.93;;;3.63;;
2558;SDS011;1289;53.488;10.006;2023-02-28T14:20:42;6.60;;;3.70;;
2558;SDS011;1289;53.488;10.006;2023-02-28T14:23:11;7.70;;;3.97;;
2558;SDS011;1289;53.488;10.006;2023-02-28T14:25:48;3.70;;;3.40;;
2558;SDS011;1289;53.488;10.006;2023-02-28T14:28:18;4.13;;;3.47;;
2558;SDS011;1289;53.488;10.006;2023-02-28T14:31:03;3.87;;;3.57;;
2558;SDS011;1289;53.488;10.006;2023-02-28T14:33:38;5.13;;;3.23;;
2558;SDS011;1289;53.488;10.006;2023-02-28T14:36:16;4.43;;;4.13;;
2558;SDS011;1289;53.488;10.006;2023-02-28T14:38:46;5.13;;;3.83;;
2558;SDS011;1289;53.488;10.006;2023-02-28T14:41:16;5.43;;;3.70;;
2558;SDS011;1289;53.488;10.006;2023-02-28T14:43:48;4.43;;;4.03;;
2558;SDS011;1289;53.488;10.006;2023-02-28T14:46:17;4.10;;;3.53;;
2558;SDS011;1289;53.488;10.006;2023-02-28T14:48:44;4.03;;;3.73;;
2558;SDS011;1289;53.488;10.006;2023-02-28T14:51:11;3.83;;;3.53;;
2558;SDS011;1289;53.488;10.006;2023-02-28T14:53:38;3.87;;;3.57;;
2558;SDS011;1289;53.488;10.006;2023-02-28T14:56:05;3.57;;;3.27;;
2558;SDS011;1289;53.488;10.006;2023-02-28T14:58:33;4.17;;;3.87;;
2558;SDS011;1289;53.488;10.006;2023-02-28T15:01:01;4.37;;;3.97;;
2558;SDS011;1289;53.488;10.006;2023-02-28T15:03:32;3.90;;;3.43;;
2558;SDS011;1289;53.488;10.006;2023-02-28T15:06:00;4.27;;;3.87;;
2558;SDS011;1289;53.488;10.006;2023-02-28T15:08:28;3.53;;;3.30;;
2558;SDS011;1289;53.488;10.006;2023-02-28T15:10:57;4.47;;;4.07;;
2558;SDS011;1289;53.488;10.006;2023-02-28T15:13:29;4.50;;;4.10;;
2558;SDS011;1289;53.488;10.006;2023-02-28T15:16:00;3.53;;;3.20;;
2558;SDS011;1289;53.488;10.006;2023-02-28T15:18:31;4.43;;;3.57;;
2558;SDS011;1289;53.488;10.006;2023-02-28T15:21:02;3.70;;;3.40;;
2558;SDS011;1289;53.488;10.006;2023-02-28T15:23:30;4.83;;;3.50;;
2558;SDS011;1289;53.488;10.006;2023-02-28T15:25:57;4.10;;;3.80;;
2558;SDS011;1289;53.488;10.006;2023-02-28T15:28:24;4.00;;;3.70;;
2558;SDS011;1289;53.488;10.006;2023-02-28T15:30:56;4.60;;;4.00;;
2558;SDS011;1289;53.488;10.006;2023-02-28T15:33:24;4.90;;;3.70;;
2558;SDS011;1289;53.488;10.006;2023-02-28T15:36:02;4.13;;;3.20;;
2558;SDS011;1289;53.488;10.006;2023-02-28T15:38:32;4.20;;;3.80;;
2558;SDS011;1289;53.488;10.006;2023-02-28T15:41:00;6.30;;;3.80;;